Time;durP1;ratioP1;P1;durP2;ratioP2;P2;SDS_P1;SDS_P2;PMS_P1;PMS_P2;Temp;Humidity;BMP_temperature;BMP_pressure;BME280_temperature;BME280_humidity;BME280_pressure;Samples;Min_cycle;Max_cycle;Signal;HPM_P1;HPM_P2
2023/01/26 00:03:23;;;;;;;89.28;29.23;;;;;;;0.17;100.00;101554.97;8306210;28;20045;-55
2023/01/26 00:07:23;;;;;;;88.60;29.90;;;;;;;0.15;100.00;101554.16;8295349;28;20072;-57
2023/01/26 00:11:25;;;;;;;85.35;27.77;;;;;;;0.19;100.00;101545.16;8296088;28;20388;-57
2023/01/26 00:15:26;;;;;;;78.70;28.50;;;;;;;0.15;100.00;101535.56;8327166;28;20037;-53
2023/01/26 00:19:26;;;;;;;92.57;29.55;;;;;;;0.16;100.00;101535.50;8327240;28;20046;-57
2023/01/26 00:23:29;;;;;;;84.40;27.13;;;;;;;0.15;100.00;101538.22;8326966;28;20115;-56
2023/01/26 00:27:31;;;;;;;86.55;26.30;;;;;;;0.18;100.00;101528.31;8327866;28;20095;-57
2023/01/26 00:31:34;;;;;;;87.00;26.70;;;;;;;0.14;100.00;101515.19;8326494;28;20594;-55
2023/01/26 00:35:34;;;;;;;92.13;28.35;;;;;;;0.07;100.00;101524.28;8327468;28;20434;-56
2023/01/26 00:39:36;;;;;;;89.35;27.40;;;;;;;0.11;100.00;101504.66;8327195;28;20102;-58
2023/01/26 00:43:36;;;;;;;90.32;25.88;;;;;;;0.08;100.00;101507.41;8327425;28;20029;-56
2023/01/26 00:47:37;;;;;;;85.97;26.60;;;;;;;0.14;100.00;101502.78;8326623;28;20060;-55
2023/01/26 00:51:38;;;;;;;93.82;27.02;;;;;;;0.08;100.00;101502.97;8326200;28;20124;-56
2023/01/26 00:55:38;;;;;;;96.40;26.48;;;;;;;0.10;100.00;101497.59;8326604;28;20060;-55
2023/01/26 00:59:39;;;;;;;75.88;23.60;;;;;;;0.04;100.00;101480.94;8326485;28;20064;-55
2023/01/26 01:03:40;;;;;;;92.22;25.50;;;;;;;0.06;100.00;101488.00;8299372;28;20037;-56
2023/01/26 01:07:40;;;;;;;86.40;25.65;;;;;;;0.03;100.00;101492.50;8293858;28;20524;-54
2023/01/26 01:11:42;;;;;;;83.10;27.48;;;;;;;0.01;100.00;101478.38;8296724;28;20045;-56
2023/01/26 01:15:43;;;;;;;82.78;26.60;;;;;;;-0.02;100.00;101473.19;8326867;28;20072;-56
2023/01/26 01:19:43;;;;;;;87.25;28.40;;;;;;;-0.05;100.00;101473.28;8325903;28;20041;-57
2023/01/26 01:23:43;;;;;;;93.90;27.42;;;;;;;-0.08;100.00;101478.72;8326610;28;20042;-56
2023/01/26 01:27:44;;;;;;;78.63;25.98;;;;;;;-0.01;100.00;101471.38;8324881;28;20446;-56
2023/01/26 01:31:44;;;;;;;87.40;26.73;;;;;;;-0.04;100.00;101464.41;8321815;28;20103;-55
2023/01/26 01:35:56;;;;;;;91.53;28.77;;;;;;;-0.08;100.00;101457.44;8324443;28;20037;-56
2023/01/26 01:39:56;;;;;;;93.82;27.52;;;;;;;0.00;100.00;101454.53;8325360;28;20502;-55
2023/01/26 01:44:18;;;;;;;83.78;27.52;;;;;;;-0.07;100.00;101448.56;8325168;28;20131;-56
2023/01/26 01:48:24;;;;;;;89.22;27.42;;;;;;;-0.01;100.00;101458.09;8325220;28;20122;-57
2023/01/26 01:52:29;;;;;;;93.50;27.67;;;;;;;-0.09;100.00;101449.53;8321010;28;20065;-56
2023/01/26 01:56:32;;;;;;;87.10;27.58;;;;;;;-0.01;100.00;101443.03;8305862;28;20132;-55
2023/01/26 02:00:33;;;;;;;80.27;26.97;;;;;;;0.08;100.00;101446.28;8292391;28;20049;-57
2023/01/26 02:04:34;;;;;;;83.60;26.40;;;;;;;0.03;100.00;101434.94;8292383;28;20316;-56
2023/01/26 02:08:42;;;;;;;83.35;23.85;;;;;;;-0.05;100.00;101429.91;8291252;28;20042;-57
2023/01/26 02:12:49;;;;;;;78.22;23.95;;;;;;;-0.15;100.00;101426.66;8303599;28;20037;-56
2023/01/26 02:16:49;;;;;;;90.93;28.45;;;;;;;-0.07;100.00;101427.28;8324354;28;20040;-56
2023/01/26 02:20:54;;;;;;;86.20;25.98;;;;;;;-0.05;100.00;101425.47;8305695;28;20046;-57
2023/01/26 02:25:03;;;;;;;81.47;27.67;;;;;;;-0.02;100.00;101428.00;8297437;28;20045;-56
2023/01/26 02:29:09;;;;;;;85.53;28.63;;;;;;;0.06;100.00;101416.25;8323825;28;20111;-56
2023/01/26 02:33:19;;;;;;;81.15;25.38;;;;;;;-0.12;100.00;101407.97;8324073;28;20064;-56
2023/01/26 02:37:20;;;;;;;87.30;25.25;;;;;;;-0.18;100.00;101402.84;8324646;28;20410;-57
2023/01/26 02:42:53;;;;;;;102.30;30.52;;;;;;;-0.24;100.00;101403.06;8320289;28;20045;-56
2023/01/26 02:45:42;;;;;;;90.65;27.63;;;;;;;-0.24;100.00;101411.03;8322458;28;20064;-56
2023/01/26 02:49:46;;;;;;;87.47;26.80;;;;;;;-0.24;100.00;101395.09;8322963;28;20045;-56
2023/01/26 02:53:47;;;;;;;88.82;26.67;;;;;;;-0.27;100.00;101392.53;8323413;28;20060;-57
2023/01/26 02:57:49;;;;;;;90.72;27.33;;;;;;;-0.28;100.00;101398.78;8324744;28;20061;-57
2023/01/26 03:01:51;;;;;;;76.40;26.00;;;;;;;-0.25;100.00;101380.06;8316205;28;20042;-55
2023/01/26 03:05:52;;;;;;;95.15;28.75;;;;;;;-0.27;100.00;101375.75;8296687;28;20390;-56
2023/01/26 03:09:52;;;;;;;97.22;29.55;;;;;;;-0.24;100.00;101387.13;8322941;28;20038;-57
2023/01/26 03:13:53;;;;;;;94.40;27.20;;;;;;;-0.18;100.00;101384.25;8315652;28;20461;-57
2023/01/26 03:27:54;;;;;;;87.13;27.30;;;;;;;-0.27;100.00;101365.97;8329424;28;20516;-51
2023/01/26 03:31:13;;;;;;;81.30;23.20;;;;;;;-0.30;100.00;101376.69;8329601;28;20576;-48
2023/01/26 03:35:14;;;;;;;93.25;26.95;;;;;;;-0.17;100.00;101378.03;8328278;28;20518;-49
2023/01/26 03:56:47;;;;;;;85.07;25.40;;;;;;;-0.36;100.00;101368.94;8329362;28;20037;-49
2023/01/26 04:00:49;;;;;;;87.78;25.13;;;;;;;-0.24;100.00;101376.50;8326037;28;20037;-52
2023/01/26 04:09:14;;;;;;;88.05;22.30;;;;;;;-0.28;100.00;101368.69;8326751;28;20033;-49
2023/01/26 04:22:00;;;;;;;68.10;22.58;;;;;;;-0.24;100.00;101359.72;8328105;28;20041;-48
2023/01/26 04:26:01;;;;;;;68.40;23.83;;;;;;;-0.24;100.00;101349.94;8327645;28;20560;-50
2023/01/26 04:30:03;;;;;;;76.68;24.65;;;;;;;-0.22;100.00;101356.06;8328263;28;20383;-52
2023/01/26 04:34:06;;;;;;;71.53;23.45;;;;;;;-0.21;100.00;101360.44;8326068;28;20061;-51
2023/01/26 04:38:07;;;;;;;72.68;21.85;;;;;;;-0.25;100.00;101353.50;8315176;28;20113;-50
2023/01/26 04:42:07;;;;;;;70.95;24.50;;;;;;;-0.21;100.00;101348.97;8301229;28;20044;-48
2023/01/26 04:46:08;;;;;;;72.10;22.10;;;;;;;-0.24;100.00;101349.94;8326686;28;20033;-51
2023/01/26 04:50:11;;;;;;;92.07;26.15;;;;;;;-0.04;100.00;101357.22;8327187;28;20548;-50
2023/01/26 04:54:12;;;;;;;81.85;24.35;;;;;;;-0.06;100.00;101353.75;8326601;28;20360;-52
2023/01/26 04:58:16;;;;;;;81.07;25.50;;;;;;;-0.13;100.00;101361.06;8327535;28;20438;-49
2023/01/26 05:02:17;;;;;;;75.32;23.10;;;;;;;-0.10;100.00;101363.63;8322024;28;20037;-48
2023/01/26 05:06:18;;;;;;;76.43;24.67;;;;;;;-0.11;100.00;101361.91;8326237;28;20593;-50
2023/01/26 05:10:22;;;;;;;78.63;22.63;;;;;;;-0.07;100.00;101352.88;8315909;28;20056;-51
2023/01/26 05:14:30;;;;;;;69.00;22.00;;;;;;;-0.05;100.00;101356.38;8299085;28;20049;-50
2023/01/26 05:18:38;;;;;;;68.75;21.17;;;;;;;0.06;100.00;101357.78;8342378;28;20401;-56
2023/01/26 05:22:51;;;;;;;67.75;21.90;;;;;;;0.10;100.00;101354.06;8323538;28;20049;-54
2023/01/26 05:27:26;;;;;;;61.25;20.38;;;;;;;-0.01;100.00;101347.34;8297321;28;20046;-54
2023/01/26 05:31:31;;;;;;;69.53;20.42;;;;;;;-0.02;100.00;101345.63;8318761;28;20057;-56
2023/01/26 05:35:32;;;;;;;72.28;22.48;;;;;;;0.09;100.00;101347.03;8323663;28;20591;-56
2023/01/26 05:39:33;;;;;;;77.80;22.17;;;;;;;0.09;100.00;101355.00;8318125;28;20337;-56
2023/01/26 05:43:35;;;;;;;78.28;21.30;;;;;;;0.17;100.00;101361.78;8314948;28;20044;-57
2023/01/26 05:47:48;;;;;;;71.43;21.63;;;;;;;0.26;100.00;101366.75;8325665;28;20574;-55
2023/01/26 05:51:49;;;;;;;84.15;23.73;;;;;;;0.14;100.00;101361.00;8325631;28;20048;-58
2023/01/26 05:55:49;;;;;;;79.88;21.77;;;;;;;0.18;100.00;101362.66;8326040;28;20124;-57
2023/01/26 05:59:53;;;;;;;82.53;22.88;;;;;;;0.22;100.00;101370.47;8312991;28;20617;-56
2023/01/26 06:03:54;;;;;;;81.72;23.55;;;;;;;0.29;100.00;101365.78;8322886;28;20497;-56
2023/01/26 06:07:55;;;;;;;73.00;22.38;;;;;;;0.24;100.00;101378.38;8324367;28;20064;-57
2023/01/26 06:12:00;;;;;;;74.90;23.08;;;;;;;0.35;100.00;101366.44;8324431;28;20041;-57
2023/01/26 06:16:21;;;;;;;82.15;22.50;;;;;;;0.33;100.00;101381.56;8322556;28;20061;-56
2023/01/26 06:20:22;;;;;;;86.75;22.20;;;;;;;0.33;100.00;101380.72;8291977;28;20046;-56
2023/01/26 06:24:29;;;;;;;87.57;24.60;;;;;;;0.31;100.00;101371.91;8318934;28;20068;-57
2023/01/26 06:28:30;;;;;;;94.95;25.67;;;;;;;0.32;100.00;101376.28;8319008;28;20045;-56
2023/01/26 06:32:30;;;;;;;91.18;24.23;;;;;;;0.41;100.00;101375.97;8324395;28;20098;-56
2023/01/26 06:36:32;;;;;;;99.78;25.08;;;;;;;0.46;100.00;101374.00;8323714;28;20050;-56
2023/01/26 06:40:33;;;;;;;95.78;25.52;;;;;;;0.53;100.00;101376.41;8314131;28;20045;-57
2023/01/26 06:44:34;;;;;;;93.80;24.20;;;;;;;0.45;100.00;101369.63;8327136;28;20084;-57
2023/01/26 06:48:35;;;;;;;82.43;24.67;;;;;;;0.48;100.00;101380.13;8316950;28;20115;-58
2023/01/26 06:52:41;;;;;;;98.38;26.08;;;;;;;0.54;100.00;101383.44;8307939;28;20045;-58
2023/01/26 06:57:01;;;;;;;97.65;26.42;;;;;;;0.48;100.00;101391.66;8323709;28;20045;-57
2023/01/26 07:01:17;;;;;;;91.43;26.83;;;;;;;0.56;100.00;101391.38;8323254;28;20114;-57
2023/01/26 07:05:18;;;;;;;99.78;26.88;;;;;;;0.57;100.00;101387.78;8297649;28;20688;-58
2023/01/26 07:09:19;;;;;;;107.78;26.33;;;;;;;0.58;100.00;101387.72;8298811;28;20060;-58
2023/01/26 07:13:19;;;;;;;96.00;27.00;;;;;;;0.60;100.00;101388.53;8315685;28;20064;-58
2023/01/26 07:17:19;;;;;;;95.80;25.17;;;;;;;0.61;100.00;101386.75;8332329;28;20454;-58
2023/01/26 07:21:21;;;;;;;103.85;26.02;;;;;;;0.63;100.00;101390.19;8331337;28;20049;-58
2023/01/26 07:25:22;;;;;;;106.88;25.92;;;;;;;0.54;100.00;101382.56;8331262;28;20037;-56
2023/01/26 07:29:22;;;;;;;93.13;24.35;;;;;;;0.63;100.00;101387.53;8331122;28;20049;-57
2023/01/26 07:33:23;;;;;;;110.20;25.63;;;;;;;0.74;100.00;101390.69;8331293;28;20045;-57
2023/01/26 07:37:27;;;;;;;99.60;24.10;;;;;;;0.58;100.00;101373.56;8346214;28;20045;-58
2023/01/26 07:41:27;;;;;;;110.57;25.88;;;;;;;0.72;100.00;101374.78;8330763;28;20040;-57
2023/01/26 07:45:28;;;;;;;105.88;25.75;;;;;;;0.65;100.00;101388.38;8330718;28;20136;-58
2023/01/26 07:49:29;;;;;;;106.00;24.85;;;;;;;0.75;100.00;101389.75;8330157;28;20037;-57
2023/01/26 07:53:32;;;;;;;93.97;24.42;;;;;;;0.77;100.00;101387.91;8330569;28;20092;-57
2023/01/26 07:57:33;;;;;;;106.75;25.90;;;;;;;0.72;100.00;101398.72;8330392;28;20128;-57
2023/01/26 08:01:34;;;;;;;108.00;24.45;;;;;;;0.75;100.00;101398.59;8325439;28;20049;-57
2023/01/26 08:05:37;;;;;;;113.45;28.88;;;;;;;0.81;100.00;101402.81;8328420;28;20064;-57
2023/01/26 08:09:37;;;;;;;116.22;28.20;;;;;;;0.79;100.00;101394.06;8328467;28;20414;-58
2023/01/26 08:13:38;;;;;;;98.47;26.40;;;;;;;0.79;100.00;101383.41;8327588;28;20070;-58
2023/01/26 08:17:38;;;;;;;126.20;28.40;;;;;;;0.89;100.00;101384.78;8329065;28;20094;-57
2023/01/26 08:21:39;;;;;;;121.85;26.88;;;;;;;0.89;100.00;101380.34;8328361;28;20079;-57
2023/01/26 08:25:39;;;;;;;117.35;27.85;;;;;;;1.01;100.00;101389.63;8329622;28;20128;-56
2023/01/26 08:29:39;;;;;;;129.82;28.27;;;;;;;0.93;100.00;101391.72;8329296;28;20041;-56
2023/01/26 08:33:41;;;;;;;135.98;30.38;;;;;;;0.98;100.00;101390.59;8329546;28;20041;-57
2023/01/26 08:37:41;;;;;;;115.18;29.15;;;;;;;1.02;100.00;101408.22;8328761;28;20095;-57
2023/01/26 08:41:42;;;;;;;122.50;27.50;;;;;;;1.11;100.00;101406.97;8329602;28;20041;-57
2023/01/26 08:45:46;;;;;;;128.30;28.17;;;;;;;1.08;100.00;101410.63;8329031;28;20057;-58
2023/01/26 08:49:46;;;;;;;129.73;27.48;;;;;;;1.05;100.00;101412.53;8328601;28;20091;-58
2023/01/26 08:53:47;;;;;;;130.35;27.92;;;;;;;1.10;100.00;101410.59;8327898;28;20065;-58
2023/01/26 08:57:51;;;;;;;122.43;26.40;;;;;;;1.09;100.00;101419.47;8327714;28;20057;-57
2023/01/26 09:01:51;;;;;;;134.90;30.92;;;;;;;1.18;100.00;101424.44;8324342;28;20045;-54
2023/01/26 09:05:52;;;;;;;130.80;30.25;;;;;;;1.18;100.00;101429.75;8324650;28;20037;-57
2023/01/26 09:09:52;;;;;;;122.18;29.50;;;;;;;1.24;100.00;101430.41;8326621;28;20041;-57
2023/01/26 09:13:55;;;;;;;131.25;28.33;;;;;;;1.23;100.00;101422.47;8327405;28;20069;-57
2023/01/26 09:17:55;;;;;;;115.40;26.60;;;;;;;1.25;100.00;101431.28;8327745;28;20408;-58
2023/01/26 09:21:56;;;;;;;128.10;27.58;;;;;;;1.33;100.00;101427.38;8327837;28;20033;-57
2023/01/26 09:25:56;;;;;;;136.50;28.10;;;;;;;1.45;100.00;101428.69;8327982;28;20483;-57
2023/01/26 09:29:57;;;;;;;122.53;27.70;;;;;;;1.47;100.00;101426.84;8327146;28;20052;-58
2023/01/26 09:33:57;;;;;;;110.47;27.42;;;;;;;1.45;100.00;101428.69;8327552;28;20111;-57
2023/01/26 09:37:57;;;;;;;113.28;25.63;;;;;;;1.51;100.00;101439.09;8327375;28;20091;-57
2023/01/26 09:42:29;;;;;;;119.53;27.90;;;;;;;1.53;100.00;101443.44;8327302;28;20121;-57
2023/01/26 09:47:03;;;;;;;111.93;27.20;;;;;;;1.50;100.00;101438.22;8326851;28;20503;-57
2023/01/26 09:51:18;;;;;;;112.93;28.17;;;;;;;1.57;100.00;101441.53;8326331;28;20065;-57
2023/01/26 09:55:21;;;;;;;103.80;27.30;;;;;;;1.60;100.00;101438.75;8326802;28;20171;-58
2023/01/26 09:59:52;;;;;;;118.80;28.52;;;;;;;1.62;100.00;101447.53;8326289;28;20037;-58
2023/01/26 10:04:10;;;;;;;119.10;28.50;;;;;;;1.60;100.00;101439.63;8326269;28;20052;-57
2023/01/26 10:08:13;;;;;;;127.18;28.80;;;;;;;1.64;100.00;101445.66;8326191;28;20409;-57
2023/01/26 10:12:20;;;;;;;121.45;28.08;;;;;;;1.64;100.00;101429.69;8326698;28;20049;-58
2023/01/26 10:16:23;;;;;;;134.82;30.70;;;;;;;1.66;100.00;101431.38;8326509;28;20025;-57
2023/01/26 10:20:31;;;;;;;131.67;28.97;;;;;;;1.65;100.00;101424.28;8324515;28;20045;-58
2023/01/26 10:24:33;;;;;;;135.50;29.75;;;;;;;1.76;100.00;101426.50;8326401;28;20056;-58
2023/01/26 10:28:34;;;;;;;129.52;31.85;;;;;;;1.74;100.00;101425.72;8327607;28;20072;-57
2023/01/26 10:32:36;;;;;;;135.90;31.67;;;;;;;1.67;100.00;101421.56;8324602;28;20417;-58
2023/01/26 10:36:36;;;;;;;127.13;28.95;;;;;;;1.66;100.00;101417.16;8325977;28;20140;-58
2023/01/26 10:40:44;;;;;;;132.43;29.48;;;;;;;1.68;100.00;101407.31;8325641;28;20060;-58
2023/01/26 10:44:45;;;;;;;139.73;29.63;;;;;;;1.70;100.00;101410.78;8325825;28;20049;-57
2023/01/26 10:48:52;;;;;;;120.40;28.58;;;;;;;1.75;100.00;101400.81;8325442;28;20049;-58
2023/01/26 10:52:59;;;;;;;135.15;30.58;;;;;;;1.85;100.00;101399.47;8296936;28;20124;-57
2023/01/26 10:57:24;;;;;;;126.65;28.17;;;;;;;1.85;100.00;101396.81;8292912;28;20042;-58
2023/01/26 11:01:26;;;;;;;132.88;30.88;;;;;;;1.84;100.00;101389.75;8316827;28;20120;-57
2023/01/26 11:05:27;;;;;;;140.20;31.23;;;;;;;1.88;100.00;101394.91;8292850;28;20525;-56
2023/01/26 11:09:30;;;;;;;155.68;32.03;;;;;;;1.95;100.00;101383.03;8292650;28;20415;-58
2023/01/26 11:13:31;;;;;;;143.38;31.58;;;;;;;2.05;100.00;101383.53;8309256;28;20041;-57
2023/01/26 11:17:58;;;;;;;146.60;30.08;;;;;;;2.02;100.00;101378.31;8323792;28;20136;-58
2023/01/26 11:22:07;;;;;;;147.02;30.40;;;;;;;2.01;100.00;101379.22;8325266;28;20120;-58
2023/01/26 11:26:44;;;;;;;142.18;30.92;;;;;;;1.97;100.00;101380.28;8323995;28;20037;-57
2023/01/26 11:31:29;;;;;;;137.57;29.52;;;;;;;1.92;100.00;101372.50;8296045;28;20046;-54
2023/01/26 11:36:03;;;;;;;133.50;29.13;;;;;;;1.98;100.00;101366.03;8319491;28;20047;-53
2023/01/26 11:40:39;;;;;;;141.32;30.13;;;;;;;2.08;100.00;101366.50;8330483;28;20407;-54
2023/01/26 11:44:56;;;;;;;129.90;30.52;;;;;;;2.11;100.00;101355.72;8330548;28;20045;-54
2023/01/26 11:54:28;;;;;;;128.60;30.45;;;;;;;2.07;100.00;101360.28;8421837;27;20373;-52
2023/01/26 11:58:52;;;;;;;132.73;31.90;;;;;;;1.97;100.00;101348.31;8387032;28;20040;-51
2023/01/26 12:03:00;;;;;;;125.93;28.13;;;;;;;1.98;100.00;101348.25;8419622;28;20382;-51
2023/01/26 12:07:10;;;;;;;139.65;30.63;;;;;;;2.10;100.00;101360.16;8421119;28;20455;-52
2023/01/26 12:11:21;;;;;;;127.88;29.92;;;;;;;2.06;100.00;101347.91;8420630;28;20040;-56
2023/01/26 12:15:27;;;;;;;129.55;30.92;;;;;;;1.99;100.00;101347.28;8419263;28;20124;-50
2023/01/26 12:19:56;;;;;;;121.25;28.40;;;;;;;2.01;100.00;101344.56;8420667;28;20040;-56
2023/01/26 12:24:01;;;;;;;120.45;29.30;;;;;;;2.00;100.00;101334.84;8420327;28;20052;-56
2023/01/26 12:28:11;;;;;;;114.15;27.85;;;;;;;1.97;100.00;101337.63;8420057;28;20044;-57
2023/01/26 12:32:15;;;;;;;97.60;25.60;;;;;;;2.01;100.00;101323.22;8420199;28;20097;-55
2023/01/26 12:36:55;;;;;;;101.30;24.65;;;;;;;1.97;100.00;101329.66;8420205;28;20086;-56
2023/01/26 12:41:22;;;;;;;111.57;26.42;;;;;;;2.04;100.00;101317.75;8385493;28;20044;-56
2023/01/26 12:45:35;;;;;;;94.22;23.13;;;;;;;2.11;100.00;101319.25;8390145;28;20041;-55
2023/01/26 12:54:16;;;;;;;98.95;22.88;;;;;;;2.27;100.00;101301.63;8356075;27;20831;-56
2023/01/26 12:58:28;;;;;;;93.23;24.93;;;;;;;2.27;100.00;101298.94;8322002;28;20104;-56
2023/01/26 13:02:32;;;;;;;88.90;22.00;;;;;;;2.38;100.00;101301.97;8321121;28;20149;-57
2023/01/26 13:06:33;;;;;;;87.82;23.75;;;;;;;2.38;100.00;101298.47;8317828;28;20061;-54
2023/01/26 13:10:49;;;;;;;84.88;24.15;;;;;;;2.36;100.00;101295.88;8316221;28;20049;-56
2023/01/26 13:14:59;;;;;;;95.90;24.15;;;;;;;2.38;100.00;101288.63;8316392;28;20038;-57
2023/01/26 13:19:01;;;;;;;87.00;23.67;;;;;;;2.38;100.00;101285.97;8316141;28;20163;-57
2023/01/26 13:23:01;;;;;;;94.95;24.75;;;;;;;2.39;100.00;101290.41;8318881;28;20040;-57
2023/01/26 13:31:50;;;;;;;83.47;22.85;;;;;;;2.26;100.00;101289.22;8316575;27;20788;-57
2023/01/26 13:35:53;;;;;;;80.57;22.13;;;;;;;2.34;100.00;101291.50;8319503;28;20030;-55
2023/01/26 13:39:59;;;;;;;74.63;22.25;;;;;;;2.41;100.00;101295.66;8318970;28;20507;-54
2023/01/26 13:44:09;;;;;;;74.70;20.90;;;;;;;2.38;100.00;101285.97;8319460;28;20046;-57
2023/01/26 13:48:19;;;;;;;77.38;20.52;;;;;;;2.37;100.00;101294.03;8319073;28;20041;-56
2023/01/26 13:52:24;;;;;;;62.92;20.27;;;;;;;2.45;100.00;101290.09;8319099;28;20050;-55
2023/01/26 13:56:29;;;;;;;61.05;18.65;;;;;;;2.48;100.00;101292.63;8303377;28;20514;-56
2023/01/26 14:00:30;;;;;;;69.32;19.20;;;;;;;2.47;100.00;101290.88;8314878;28;20045;-56
2023/01/26 14:04:31;;;;;;;53.72;16.65;;;;;;;2.51;100.00;101292.50;8316677;28;20577;-56
2023/01/26 14:08:32;;;;;;;52.88;14.55;;;;;;;2.53;100.00;101290.59;8316333;28;20045;-55
2023/01/26 14:12:40;;;;;;;44.22;15.45;;;;;;;2.50;100.00;101296.06;8316336;28;20046;-53
2023/01/26 14:16:40;;;;;;;42.90;12.82;;;;;;;2.54;100.00;101287.03;8313716;28;20038;-56
2023/01/26 14:20:42;;;;;;;42.55;13.60;;;;;;;2.57;100.00;101292.22;8312928;28;20205;-55
2023/01/26 14:24:47;;;;;;;46.45;14.93;;;;;;;2.61;100.00;101295.59;8314572;28;20061;-57
2023/01/26 14:28:47;;;;;;;51.20;13.93;;;;;;;2.61;100.00;101293.78;8310952;28;20049;-57
2023/01/26 14:32:53;;;;;;;36.05;12.20;;;;;;;2.65;100.00;101298.03;8313419;28;20042;-56
2023/01/26 14:37:13;;;;;;;36.97;12.82;;;;;;;2.58;100.00;101299.28;8313269;28;20391;-56
2023/01/26 14:41:20;;;;;;;47.38;14.68;;;;;;;2.60;100.00;101297.41;8301260;28;20045;-58
2023/01/26 14:45:30;;;;;;;34.63;12.38;;;;;;;2.61;100.00;101291.13;8291374;28;20034;-55
2023/01/26 14:53:52;;;;;;;33.40;11.85;;;;;;;2.71;100.00;101300.41;8399000;27;20427;-55
2023/01/26 14:57:55;;;;;;;37.45;13.85;;;;;;;2.71;100.00;101305.75;8381437;28;20119;-53
2023/01/26 15:02:14;;;;;;;37.10;13.00;;;;;;;2.73;100.00;101303.91;8379851;28;20044;-55
2023/01/26 15:06:19;;;;;;;33.47;12.63;;;;;;;2.76;100.00;101311.75;8403735;28;20541;-57
2023/01/26 15:10:38;;;;;;;39.10;11.98;;;;;;;2.79;100.00;101318.75;8412989;28;20038;-56
2023/01/26 15:14:59;;;;;;;38.28;12.23;;;;;;;2.80;100.00;101316.00;8401613;28;20040;-54
2023/01/26 15:19:05;;;;;;;30.95;11.65;;;;;;;2.80;100.00;101318.69;8372260;28;20461;-56
2023/01/26 15:23:27;;;;;;;40.28;12.30;;;;;;;2.82;100.00;101308.81;8374331;28;20075;-54
2023/01/26 15:27:31;;;;;;;38.83;13.48;;;;;;;2.83;100.00;101320.31;8359157;27;20382;-55
2023/01/26 15:31:35;;;;;;;44.35;12.80;;;;;;;2.83;100.00;101323.88;8373324;27;20102;-54
2023/01/26 15:35:35;;;;;;;45.88;13.20;;;;;;;2.80;100.00;101315.16;8373299;27;20128;-55
2023/01/26 15:39:36;;;;;;;44.05;14.25;;;;;;;2.84;100.00;101322.09;8362079;28;20038;-55
2023/01/26 15:43:36;;;;;;;50.85;14.25;;;;;;;2.84;100.00;101322.91;8353081;28;20033;-53
2023/01/26 15:47:37;;;;;;;60.05;16.27;;;;;;;2.83;100.00;101315.88;8379340;28;20036;-54
2023/01/26 15:51:38;;;;;;;63.13;16.75;;;;;;;2.84;100.00;101322.09;8379704;28;20120;-55
2023/01/26 15:55:39;;;;;;;65.68;15.88;;;;;;;2.87;100.00;101312.09;8375344;28;20402;-53
2023/01/26 15:59:40;;;;;;;58.28;15.15;;;;;;;2.88;100.00;101308.50;8377601;28;20036;-55
2023/01/26 16:03:40;;;;;;;79.85;16.52;;;;;;;2.91;100.00;101319.03;8365971;28;20083;-55
2023/01/26 16:07:41;;;;;;;107.50;18.27;;;;;;;2.90;100.00;101325.31;8357444;28;20621;-54
2023/01/26 16:11:47;;;;;;;81.03;17.42;;;;;;;2.96;100.00;101326.84;8357512;28;20056;-55
2023/01/26 16:15:51;;;;;;;93.70;18.90;;;;;;;3.01;100.00;101325.69;8354730;28;20037;-55
2023/01/26 16:19:51;;;;;;;129.05;19.02;;;;;;;2.98;100.00;101320.47;8357113;28;20051;-53
2023/01/26 16:23:52;;;;;;;106.47;20.83;;;;;;;3.05;100.00;101321.91;8349008;28;20521;-53
2023/01/26 16:27:55;;;;;;;103.63;20.55;;;;;;;3.08;100.00;101319.09;8340994;28;20087;-55
2023/01/26 16:31:56;;;;;;;111.97;23.90;;;;;;;3.17;100.00;101307.97;8355695;28;20064;-55
2023/01/26 16:35:57;;;;;;;134.95;23.60;;;;;;;3.20;100.00;101313.16;8355353;28;20041;-54
2023/01/26 16:39:57;;;;;;;146.02;24.27;;;;;;;3.24;100.00;101305.88;8353815;28;20067;-55
2023/01/26 16:44:00;;;;;;;121.75;26.00;;;;;;;3.30;100.00;101309.09;8352051;28;20036;-55
2023/01/26 16:48:00;;;;;;;150.00;28.15;;;;;;;3.33;100.00;101300.91;8353816;28;20047;-54
2023/01/26 16:52:01;;;;;;;157.68;29.40;;;;;;;3.36;100.00;101307.94;8322141;28;20044;-55
2023/01/26 16:56:02;;;;;;;150.23;27.60;;;;;;;3.40;100.00;101307.72;8359317;28;20041;-55
2023/01/26 17:00:03;;;;;;;165.98;28.05;;;;;;;3.45;100.00;101327.03;8350590;28;20745;-53
2023/01/26 17:04:04;;;;;;;159.77;28.15;;;;;;;3.49;100.00;101322.41;8354814;28;20476;-55
2023/01/26 17:08:04;;;;;;;152.43;28.92;;;;;;;3.54;100.00;101321.22;8352272;28;20107;-52
2023/01/26 17:12:06;;;;;;;157.65;27.73;;;;;;;3.61;100.00;101325.34;8352161;28;20506;-54
2023/01/26 17:16:12;;;;;;;172.10;28.55;;;;;;;3.62;100.00;101324.41;8350705;28;20060;-54
2023/01/26 17:20:12;;;;;;;156.38;27.67;;;;;;;3.60;100.00;101331.63;8351680;28;20036;-53
2023/01/26 17:24:13;;;;;;;175.25;33.78;;;;;;;3.65;100.00;101332.25;8342091;28;20040;-55
2023/01/26 17:28:13;;;;;;;164.80;31.25;;;;;;;3.69;100.00;101331.16;8350887;28;20037;-54
2023/01/26 17:32:22;;;;;;;153.43;32.72;;;;;;;3.74;100.00;101330.94;8353691;28;20037;-55
2023/01/26 17:36:22;;;;;;;154.95;31.77;;;;;;;3.76;100.00;101326.38;8336686;28;20535;-55
2023/01/26 17:40:23;;;;;;;160.70;31.50;;;;;;;3.76;100.00;101332.56;8341403;28;20076;-56
2023/01/26 17:44:23;;;;;;;158.65;31.33;;;;;;;3.80;100.00;101326.16;8352227;28;20041;-54
2023/01/26 17:48:26;;;;;;;155.90;30.52;;;;;;;3.84;100.00;101333.06;8350805;28;20151;-55
2023/01/26 17:52:27;;;;;;;187.43;33.78;;;;;;;3.89;100.00;101325.69;8350213;28;20033;-55
2023/01/26 17:56:29;;;;;;;179.35;35.53;;;;;;;3.96;100.00;101335.09;8348865;28;20049;-55
2023/01/26 18:00:30;;;;;;;150.90;32.08;;;;;;;3.94;100.00;101331.63;8357690;28;20418;-56
2023/01/26 18:04:31;;;;;;;161.63;32.80;;;;;;;3.97;100.00;101331.47;8354564;28;20087;-55
2023/01/26 18:08:32;;;;;;;144.90;31.08;;;;;;;3.99;100.00;101334.06;8346544;28;20056;-54
2023/01/26 18:12:33;;;;;;;140.82;33.13;;;;;;;4.02;100.00;101333.91;8338262;28;20525;-54
2023/01/26 18:16:33;;;;;;;191.73;44.22;;;;;;;4.01;100.00;101327.72;8349059;28;20456;-52
2023/01/26 18:20:34;;;;;;;190.00;43.65;;;;;;;4.07;100.00;101331.88;8347041;28;20040;-52
2023/01/26 18:24:35;;;;;;;178.32;38.63;;;;;;;4.07;100.00;101326.53;8346007;28;20056;-53
2023/01/26 18:28:35;;;;;;;164.95;35.88;;;;;;;4.11;100.00;101332.59;8351556;28;20868;-56
2023/01/26 18:32:36;;;;;;;160.68;35.42;;;;;;;4.12;100.00;101326.28;8358062;28;20789;-54
2023/01/26 18:36:36;;;;;;;161.95;35.83;;;;;;;4.09;100.00;101325.50;8348578;28;20510;-55
2023/01/26 18:40:38;;;;;;;147.45;32.22;;;;;;;4.03;100.00;101324.97;8354368;28;20481;-52
2023/01/26 18:44:39;;;;;;;154.57;30.80;;;;;;;4.00;100.00;101331.31;8347722;28;20561;-55
2023/01/26 18:48:41;;;;;;;156.20;33.38;;;;;;;3.99;100.00;101329.59;8352567;28;20044;-53
2023/01/26 18:52:41;;;;;;;172.85;36.15;;;;;;;3.98;100.00;101327.00;8327156;28;20108;-54
2023/01/26 18:56:42;;;;;;;182.52;35.08;;;;;;;3.99;100.00;101324.25;8336972;28;20055;-54
2023/01/26 19:00:42;;;;;;;183.60;36.03;;;;;;;4.01;100.00;101317.00;8346358;28;20037;-55
2023/01/26 19:04:43;;;;;;;141.98;35.00;;;;;;;4.03;100.00;101317.78;8345749;28;20044;-55
2023/01/26 19:08:45;;;;;;;173.23;36.88;;;;;;;4.04;100.00;101321.34;8358211;28;20300;-54
2023/01/26 19:12:48;;;;;;;170.20;34.17;;;;;;;4.07;100.00;101324.72;8346702;28;20045;-55
2023/01/26 19:16:48;;;;;;;175.75;37.17;;;;;;;4.06;100.00;101309.59;8345689;28;20048;-55
2023/01/26 19:20:55;;;;;;;180.02;36.25;;;;;;;4.09;100.00;101316.63;8345486;28;20036;-54
2023/01/26 19:24:56;;;;;;;181.82;34.00;;;;;;;4.11;100.00;101317.38;8347415;28;20037;-53